sensor_id;sensor_type;location;lat;lon;timestamp;pressure;altitude;pressure_sealevel;temperature;humidity
72423;BME280;71399;54.146;38.734;2023-07-22T00:01:14;97454.22;;;13.77;100.00
72423;BME280;71399;54.146;38.734;2023-07-22T00:03:41;97460.72;;;13.71;100.00
72423;BME280;71399;54.146;38.734;2023-07-22T00:06:09;97470.72;;;13.74;100.00
72423;BME280;71399;54.146;38.734;2023-07-22T00:08:37;97472.41;;;13.70;100.00
72423;BME280;71399;54.146;38.734;2023-07-22T00:11:05;97473.59;;;13.64;100.00
72423;BME280;71399;54.146;38.734;2023-07-22T00:13:32;97481.72;;;13.67;100.00
72423;BME280;71399;54.146;38.734;2023-07-22T00:15:59;97487.28;;;13.66;100.00
72423;BME280;71399;54.146;38.734;2023-07-22T00:18:27;97490.53;;;13.63;100.00
72423;BME280;71399;54.146;38.734;2023-07-22T00:20:54;97494.28;;;13.62;100.00
72423;BME280;71399;54.146;38.734;2023-07-22T00:23:20;97491.44;;;13.58;100.00
72423;BME280;71399;54.146;38.734;2023-07-22T00:25:47;97500.47;;;13.57;100.00
72423;BME280;71399;54.146;38.734;2023-07-22T00:28:13;97503.69;;;13.54;100.00
72423;BME280;71399;54.146;38.734;2023-07-22T00:30:40;97520.34;;;13.55;100.00
72423;BME280;71399;54.146;38.734;2023-07-22T00:33:08;97523.09;;;13.49;100.00
72423;BME280;71399;54.146;38.734;2023-07-22T00:35:35;97531.34;;;13.48;100.00
72423;BME280;71399;54.146;38.734;2023-07-22T00:38:01;97533.50;;;13.46;100.00
72423;BME280;71399;54.146;38.734;2023-07-22T00:40:28;97522.53;;;13.39;100.00
72423;BME280;71399;54.146;38.734;2023-07-22T00:42:58;97538.13;;;13.40;100.00
72423;BME280;71399;54.146;38.734;2023-07-22T00:45:25;97544.00;;;13.37;100.00
72423;BME280;71399;54.146;38.734;2023-07-22T00:47:52;97542.78;;;13.29;100.00
72423;BME280;71399;54.146;38.734;2023-07-22T00:50:18;97551.75;;;13.33;100.00
72423;BME280;71399;54.146;38.734;2023-07-22T00:52:45;97550.16;;;13.32;100.00
72423;BME280;71399;54.146;38.734;2023-07-22T00:55:11;97564.47;;;13.31;100.00
72423;BME280;71399;54.146;38.734;2023-07-22T00:57:37;97557.22;;;13.23;100.00
72423;BME280;71399;54.146;38.734;2023-07-22T01:00:05;97560.34;;;13.25;100.00
72423;BME280;71399;54.146;38.734;2023-07-22T01:02:33;97568.56;;;13.24;100.00
72423;BME280;71399;54.146;38.734;2023-07-22T01:05:00;97564.72;;;13.16;100.00
72423;BME280;71399;54.146;38.734;2023-07-22T01:07:28;97567.09;;;13.18;100.00
72423;BME280;71399;54.146;38.734;2023-07-22T01:09:58;97578.09;;;13.25;100.00
72423;BME280;71399;54.146;38.734;2023-07-22T01:12:24;97578.16;;;13.20;100.00
72423;BME280;71399;54.146;38.734;2023-07-22T01:14:50;97592.38;;;13.24;100.00
72423;BME280;71399;54.146;38.734;2023-07-22T01:17:17;97588.66;;;13.25;100.00
72423;BME280;71399;54.146;38.734;2023-07-22T01:19:45;97594.81;;;13.20;100.00
72423;BME280;71399;54.146;38.734;2023-07-22T01:22:13;97595.59;;;13.21;100.00
72423;BME280;71399;54.146;38.734;2023-07-22T01:24:39;97601.00;;;13.15;100.00
72423;BME280;71399;54.146;38.734;2023-07-22T01:27:06;97598.81;;;13.18;100.00
72423;BME280;71399;54.146;38.734;2023-07-22T01:29:36;97609.84;;;13.25;100.00
72423;BME280;71399;54.146;38.734;2023-07-22T01:32:02;97604.59;;;13.20;100.00
72423;BME280;71399;54.146;38.734;2023-07-22T01:34:29;97608.06;;;13.20;100.00
72423;BME280;71399;54.146;38.734;2023-07-22T01:36:57;97621.78;;;13.22;100.00
72423;BME280;71399;54.146;38.734;2023-07-22T01:39:23;97625.00;;;13.19;100.00
72423;BME280;71399;54.146;38.734;2023-07-22T01:41:49;97626.56;;;13.20;100.00
72423;BME280;71399;54.146;38.734;2023-07-22T01:44:16;97614.41;;;13.19;100.00
72423;BME280;71399;54.146;38.734;2023-07-22T01:46:42;97608.34;;;13.19;100.00
72423;BME280;71399;54.146;38.734;2023-07-22T01:49:11;97622.44;;;13.28;100.00
72423;BME280;71399;54.146;38.734;2023-07-22T01:51:39;97622.16;;;13.29;100.00
72423;BME280;71399;54.146;38.734;2023-07-22T01:54:09;97628.78;;;13.32;100.00
72423;BME280;71399;54.146;38.734;2023-07-22T01:56:36;97621.38;;;13.29;100.00
72423;BME280;71399;54.146;38.734;2023-07-22T01:59:02;97615.03;;;13.30;100.00
72423;BME280;71399;54.146;38.734;2023-07-22T02:01:29;97624.66;;;13.40;100.00
72423;BME280;71399;54.146;38.734;2023-07-22T02:03:55;97613.09;;;13.36;100.00
72423;BME280;71399;54.146;38.734;2023-07-22T02:06:22;97623.28;;;13.42;100.00
72423;BME280;71399;54.146;38.734;2023-07-22T02:08:48;97615.44;;;13.37;100.00
72423;BME280;71399;54.146;38.734;2023-07-22T02:11:16;97631.72;;;13.44;100.00
72423;BME280;71399;54.146;38.734;2023-07-22T02:13:42;97615.16;;;13.39;100.00
72423;BME280;71399;54.146;38.734;2023-07-22T02:16:08;97631.13;;;13.47;100.00
72423;BME280;71399;54.146;38.734;2023-07-22T02:18:38;97634.84;;;13.46;100.00
72423;BME280;71399;54.146;38.734;2023-07-22T02:21:04;97642.00;;;13.46;100.00
72423;BME280;71399;54.146;38.734;2023-07-22T02:23:30;97645.13;;;13.48;100.00
72423;BME280;71399;54.146;38.734;2023-07-22T02:25:56;97650.72;;;13.46;100.00
72423;BME280;71399;54.146;38.734;2023-07-22T02:28:22;97653.69;;;13.45;100.00
72423;BME280;71399;54.146;38.734;2023-07-22T02:30:53;97649.75;;;13.42;100.00
72423;BME280;71399;54.146;38.734;2023-07-22T02:33:21;97657.97;;;13.41;100.00
72423;BME280;71399;54.146;38.734;2023-07-22T02:35:48;97667.78;;;13.40;100.00
72423;BME280;71399;54.146;38.734;2023-07-22T02:38:15;97661.00;;;13.34;100.00
72423;BME280;71399;54.146;38.734;2023-07-22T02:40:42;97666.97;;;13.40;100.00
72423;BME280;71399;54.146;38.734;2023-07-22T02:43:09;97664.28;;;13.45;100.00
72423;BME280;71399;54.146;38.734;2023-07-22T02:45:36;97658.09;;;13.49;100.00
72423;BME280;71399;54.146;38.734;2023-07-22T02:48:02;97665.72;;;13.51;100.00
72423;BME280;71399;54.146;38.734;2023-07-22T02:50:30;97666.94;;;13.59;100.00
72423;BME280;71399;54.146;38.734;2023-07-22T02:52:56;97649.38;;;13.77;100.00
72423;BME280;71399;54.146;38.734;2023-07-22T02:55:23;97644.84;;;13.91;100.00
72423;BME280;71399;54.146;38.734;2023-07-22T02:57:49;97643.00;;;13.92;100.00
72423;BME280;71399;54.146;38.734;2023-07-22T03:00:18;97641.91;;;13.93;100.00
72423;BME280;71399;54.146;38.734;2023-07-22T03:02:54;97643.59;;;13.88;100.00
72423;BME280;71399;54.146;38.734;2023-07-22T03:05:28;97632.81;;;13.85;100.00
72423;BME280;71399;54.146;38.734;2023-07-22T03:07:55;97635.53;;;13.80;100.00
72423;BME280;71399;54.146;38.734;2023-07-22T03:10:21;97649.47;;;13.85;100.00
72423;BME280;71399;54.146;38.734;2023-07-22T03:12:47;97645.94;;;13.90;100.00
72423;BME280;71399;54.146;38.734;2023-07-22T03:15:13;97646.91;;;13.94;100.00
72423;BME280;71399;54.146;38.734;2023-07-22T03:17:40;97642.28;;;14.00;100.00
72423;BME280;71399;54.146;38.734;2023-07-22T03:20:09;97646.22;;;14.02;100.00
72423;BME280;71399;54.146;38.734;2023-07-22T03:22:40;97652.28;;;14.03;100.00
72423;BME280;71399;54.146;38.734;2023-07-22T03:25:11;97657.00;;;14.06;100.00
72423;BME280;71399;54.146;38.734;2023-07-22T03:27:38;97649.16;;;14.01;100.00
72423;BME280;71399;54.146;38.734;2023-07-22T03:30:06;97664.06;;;14.11;100.00
72423;BME280;71399;54.146;38.734;2023-07-22T03:32:34;97666.13;;;14.14;100.00
72423;BME280;71399;54.146;38.734;2023-07-22T03:35:00;97660.53;;;14.15;100.00
72423;BME280;71399;54.146;38.734;2023-07-22T03:37:29;97670.22;;;14.20;100.00
72423;BME280;71399;54.146;38.734;2023-07-22T03:39:55;97662.66;;;14.27;100.00
72423;BME280;71399;54.146;38.734;2023-07-22T03:42:22;97668.34;;;14.34;100.00
72423;BME280;71399;54.146;38.734;2023-07-22T03:44:48;97672.44;;;14.40;100.00
72423;BME280;71399;54.146;38.734;2023-07-22T03:47:14;97673.69;;;14.43;100.00
72423;BME280;71399;54.146;38.734;2023-07-22T03:49:40;97678.88;;;14.48;100.00
72423;BME280;71399;54.146;38.734;2023-07-22T03:52:07;97678.31;;;14.51;100.00
72423;BME280;71399;54.146;38.734;2023-07-22T03:54:33;97680.53;;;14.58;100.00
72423;BME280;71399;54.146;38.734;2023-07-22T03:56:59;97679.38;;;14.64;100.00
72423;BME280;71399;54.146;38.734;2023-07-22T03:59:25;97671.91;;;14.66;100.00
72423;BME280;71399;54.146;38.734;2023-07-22T04:01:51;97677.09;;;14.71;100.00
72423;BME280;71399;54.146;38.734;2023-07-22T04:04:17;97672.09;;;14.70;100.00
72423;BME280;71399;54.146;38.734;2023-07-22T04:06:43;97661.56;;;14.78;100.00
72423;BME280;71399;54.146;38.734;2023-07-22T04:09:09;97664.28;;;14.87;100.00
72423;BME280;71399;54.146;38.734;2023-07-22T04:11:36;97649.44;;;14.86;100.00
72423;BME280;71399;54.146;38.734;2023-07-22T04:14:02;97656.19;;;14.92;100.00
72423;BME280;71399;54.146;38.734;2023-07-22T04:16:28;97650.75;;;14.97;100.00
72423;BME280;71399;54.146;38.734;2023-07-22T04:18:55;97662.38;;;15.10;100.00
72423;BME280;71399;54.146;38.734;2023-07-22T04:21:21;97661.97;;;15.17;100.00
72423;BME280;71399;54.146;38.734;2023-07-22T04:23:47;97653.19;;;15.16;100.00
72423;BME280;71399;54.146;38.734;2023-07-22T04:26:14;97656.88;;;15.29;100.00
72423;BME280;71399;54.146;38.734;2023-07-22T04:28:40;97656.91;;;15.38;100.00
72423;BME280;71399;54.146;38.734;2023-07-22T04:31:06;97647.19;;;15.73;100.00
72423;BME280;71399;54.146;38.734;2023-07-22T04:33:34;97599.50;;;16.61;100.00
72423;BME280;71399;54.146;38.734;2023-07-22T04:36:01;97573.38;;;17.19;100.00
72423;BME280;71399;54.146;38.734;2023-07-22T04:38:27;97601.53;;;17.29;100.00
72423;BME280;71399;54.146;38.734;2023-07-22T04:40:54;97598.00;;;17.16;100.00
72423;BME280;71399;54.146;38.734;2023-07-22T04:43:20;97599.75;;;17.03;100.00
72423;BME280;71399;54.146;38.734;2023-07-22T04:45:46;97583.00;;;17.41;100.00
72423;BME280;71399;54.146;38.734;2023-07-22T04:48:20;97639.97;;;18.59;100.00
72423;BME280;71399;54.146;38.734;2023-07-22T04:50:48;97705.72;;;18.85;100.00
72423;BME280;71399;54.146;38.734;2023-07-22T04:53:14;97703.94;;;18.89;100.00
72423;BME280;71399;54.146;38.734;2023-07-22T04:55:40;97749.41;;;19.01;100.00
72423;BME280;71399;54.146;38.734;2023-07-22T04:58:07;97742.34;;;18.76;100.00
72423;BME280;71399;54.146;38.734;2023-07-22T05:00:35;97730.63;;;18.47;100.00
72423;BME280;71399;54.146;38.734;2023-07-22T05:03:03;97709.47;;;18.12;100.00
72423;BME280;71399;54.146;38.734;2023-07-22T05:05:31;97713.66;;;17.92;100.00
72423;BME280;71399;54.146;38.734;2023-07-22T05:07:57;97685.63;;;17.77;100.00
72423;BME280;71399;54.146;38.734;2023-07-22T05:10:23;97663.84;;;17.75;100.00
72423;BME280;71399;54.146;38.734;2023-07-22T05:12:50;97639.28;;;17.69;100.00
72423;BME280;71399;54.146;38.734;2023-07-22T05:15:16;97601.09;;;17.56;100.00
72423;BME280;71399;54.146;38.734;2023-07-22T05:17:42;97602.13;;;17.73;100.00
72423;BME280;71399;54.146;38.734;2023-07-22T05:20:08;97618.47;;;17.92;100.00
72423;BME280;71399;54.146;38.734;2023-07-22T05:22:36;97646.31;;;18.04;100.00
72423;BME280;71399;54.146;38.734;2023-07-22T05:25:07;97643.75;;;18.37;100.00
72423;BME280;71399;54.146;38.734;2023-07-22T05:27:33;97695.16;;;18.88;100.00
72423;BME280;71399;54.146;38.734;2023-07-22T05:30:00;97719.00;;;19.27;100.00
72423;BME280;71399;54.146;38.734;2023-07-22T05:32:28;97828.75;;;19.34;100.00
72423;BME280;71399;54.146;38.734;2023-07-22T05:34:55;97823.91;;;19.15;100.00
72423;BME280;71399;54.146;38.734;2023-07-22T05:37:25;97815.16;;;19.06;100.00
72423;BME280;71399;54.146;38.734;2023-07-22T05:39:51;97761.03;;;19.18;100.00
72423;BME280;71399;54.146;38.734;2023-07-22T05:42:18;97819.09;;;19.63;100.00
72423;BME280;71399;54.146;38.734;2023-07-22T05:44:44;97891.00;;;20.23;100.00
72423;BME280;71399;54.146;38.734;2023-07-22T05:47:10;97941.88;;;20.60;100.00
72423;BME280;71399;54.146;38.734;2023-07-22T05:49:37;97969.25;;;20.65;100.00
72423;BME280;71399;54.146;38.734;2023-07-22T05:52:03;97994.16;;;20.78;100.00
72423;BME280;71399;54.146;38.734;2023-07-22T05:54:29;98018.38;;;20.82;100.00
72423;BME280;71399;54.146;38.734;2023-07-22T05:56:55;97996.19;;;20.94;100.00
72423;BME280;71399;54.146;38.734;2023-07-22T05:59:21;98031.91;;;21.22;100.00
72423;BME280;71399;54.146;38.734;2023-07-22T06:01:47;98039.03;;;21.43;100.00
72423;BME280;71399;54.146;38.734;2023-07-22T06:04:14;98031.13;;;21.34;100.00
72423;BME280;71399;54.146;38.734;2023-07-22T06:06:40;98067.41;;;21.19;100.00
72423;BME280;71399;54.146;38.734;2023-07-22T06:09:06;98058.56;;;21.06;100.00
72423;BME280;71399;54.146;38.734;2023-07-22T06:11:32;98069.16;;;21.03;100.00
72423;BME280;71399;54.146;38.734;2023-07-22T06:13:58;98056.59;;;21.40;100.00
72423;BME280;71399;54.146;38.734;2023-07-22T06:16:24;98133.88;;;21.88;100.00
72423;BME280;71399;54.146;38.734;2023-07-22T06:18:51;98195.00;;;22.07;100.00
72423;BME280;71399;54.146;38.734;2023-07-22T06:21:17;98106.25;;;21.99;100.00
72423;BME280;71399;54.146;38.734;2023-07-22T06:23:43;98143.91;;;22.15;100.00
72423;BME280;71399;54.146;38.734;2023-07-22T06:26:09;98215.56;;;22.15;100.00
72423;BME280;71399;54.146;38.734;2023-07-22T06:28:35;98161.13;;;22.14;100.00
72423;BME280;71399;54.146;38.734;2023-07-22T06:31:01;98260.28;;;22.23;100.00
72423;BME280;71399;54.146;38.734;2023-07-22T06:33:27;98325.41;;;22.32;100.00
72423;BME280;71399;54.146;38.734;2023-07-22T06:35:53;98327.19;;;22.28;100.00
72423;BME280;71399;54.146;38.734;2023-07-22T06:38:19;98257.84;;;22.18;100.00
72423;BME280;71399;54.146;38.734;2023-07-22T06:40:46;98367.19;;;22.21;100.00
72423;BME280;71399;54.146;38.734;2023-07-22T06:43:12;98408.66;;;22.11;100.00
72423;BME280;71399;54.146;38.734;2023-07-22T06:45:38;98379.47;;;21.97;100.00
72423;BME280;71399;54.146;38.734;2023-07-22T06:48:04;98339.34;;;22.01;100.00
72423;BME280;71399;54.146;38.734;2023-07-22T06:50:30;98423.16;;;21.98;100.00
72423;BME280;71399;54.146;38.734;2023-07-22T06:52:57;98494.91;;;21.89;100.00
72423;BME280;71399;54.146;38.734;2023-07-22T06:55:23;98471.75;;;21.84;100.00
72423;BME280;71399;54.146;38.734;2023-07-22T06:57:49;98337.19;;;21.94;100.00
72423;BME280;71399;54.146;38.734;2023-07-22T07:00:15;98506.41;;;21.89;100.00
72423;BME280;71399;54.146;38.734;2023-07-22T07:02:41;98407.59;;;21.91;100.00
72423;BME280;71399;54.146;38.734;2023-07-22T07:05:08;98358.66;;;22.07;100.00
72423;BME280;71399;54.146;38.734;2023-07-22T07:07:34;98420.66;;;22.14;100.00
72423;BME280;71399;54.146;38.734;2023-07-22T07:10:00;98486.81;;;22.31;100.00
72423;BME280;71399;54.146;38.734;2023-07-22T07:12:26;98604.28;;;22.34;100.00
72423;BME280;71399;54.146;38.734;2023-07-22T07:14:53;98597.44;;;22.36;100.00
72423;BME280;71399;54.146;38.734;2023-07-22T07:17:19;98656.97;;;22.38;100.00
72423;BME280;71399;54.146;38.734;2023-07-22T07:19:45;98683.91;;;22.21;100.00
72423;BME280;71399;54.146;38.734;2023-07-22T07:22:11;98616.22;;;22.15;100.00
72423;BME280;71399;54.146;38.734;2023-07-22T07:24:37;98589.00;;;22.26;100.00
72423;BME280;71399;54.146;38.734;2023-07-22T07:27:04;98591.75;;;22.38;100.00
72423;BME280;71399;54.146;38.734;2023-07-22T07:29:30;98639.50;;;22.32;100.00
72423;BME280;71399;54.146;38.734;2023-07-22T07:31:56;98621.69;;;22.49;100.00
72423;BME280;71399;54.146;38.734;2023-07-22T07:34:23;98632.47;;;22.61;100.00
72423;BME280;71399;54.146;38.734;2023-07-22T07:36:49;98661.13;;;22.69;100.00
72423;BME280;71399;54.146;38.734;2023-07-22T07:39:15;98676.63;;;22.85;100.00
72423;BME280;71399;54.146;38.734;2023-07-22T07:41:41;98721.13;;;23.16;100.00
72423;BME280;71399;54.146;38.734;2023-07-22T07:44:07;98737.63;;;23.26;100.00
72423;BME280;71399;54.146;38.734;2023-07-22T07:46:33;98733.44;;;23.17;100.00
72423;BME280;71399;54.146;38.734;2023-07-22T07:49:01;98664.78;;;23.19;100.00
72423;BME280;71399;54.146;38.734;2023-07-22T07:51:29;98680.50;;;23.29;100.00
72423;BME280;71399;54.146;38.734;2023-07-22T07:53:57;98729.66;;;23.30;100.00
72423;BME280;71399;54.146;38.734;2023-07-22T07:56:24;98732.69;;;23.28;100.00
72423;BME280;71399;54.146;38.734;2023-07-22T07:58:52;98741.13;;;23.39;100.00
72423;BME280;71399;54.146;38.734;2023-07-22T08:01:19;98713.09;;;23.40;100.00
72423;BME280;71399;54.146;38.734;2023-07-22T08:03:46;98723.75;;;23.37;100.00
72423;BME280;71399;54.146;38.734;2023-07-22T08:06:13;98724.88;;;23.36;100.00
72423;BME280;71399;54.146;38.734;2023-07-22T08:08:39;98696.41;;;23.35;100.00
72423;BME280;71399;54.146;38.734;2023-07-22T08:11:07;98713.75;;;23.25;100.00
72423;BME280;71399;54.146;38.734;2023-07-22T08:13:35;98687.63;;;23.25;100.00
72423;BME280;71399;54.146;38.734;2023-07-22T08:16:03;98680.88;;;23.53;100.00
72423;BME280;71399;54.146;38.734;2023-07-22T08:18:30;98687.13;;;23.57;100.00
72423;BME280;71399;54.146;38.734;2023-07-22T08:20:56;98701.03;;;23.59;100.00
72423;BME280;71399;54.146;38.734;2023-07-22T08:23:23;98714.63;;;23.62;100.00
72423;BME280;71399;54.146;38.734;2023-07-22T08:25:49;98693.28;;;23.33;100.00
72423;BME280;71399;54.146;38.734;2023-07-22T08:28:16;98664.47;;;23.45;100.00
72423;BME280;71399;54.146;38.734;2023-07-22T08:30:43;98688.72;;;23.70;100.00
72423;BME280;71399;54.146;38.734;2023-07-22T08:33:10;98729.88;;;23.95;100.00
72423;BME280;71399;54.146;38.734;2023-07-22T08:35:40;98731.34;;;24.05;100.00
72423;BME280;71399;54.146;38.734;2023-07-22T08:38:06;98691.16;;;24.25;100.00
72423;BME280;71399;54.146;38.734;2023-07-22T08:40:38;98698.09;;;24.38;100.00
72423;BME280;71399;54.146;38.734;2023-07-22T08:43:08;98722.69;;;24.12;100.00
72423;BME280;71399;54.146;38.734;2023-07-22T08:45:36;98747.06;;;24.03;100.00
72423;BME280;71399;54.146;38.734;2023-07-22T08:48:08;98724.19;;;24.09;100.00
72423;BME280;71399;54.146;38.734;2023-07-22T08:50:53;98729.56;;;24.09;100.00
72423;BME280;71399;54.146;38.734;2023-07-22T08:53:20;98710.94;;;24.16;100.00
72423;BME280;71399;54.146;38.734;2023-07-22T08:55:47;98708.44;;;24.36;100.00
72423;BME280;71399;54.146;38.734;2023-07-22T08:58:16;98711.63;;;24.54;100.00
72423;BME280;71399;54.146;38.734;2023-07-22T09:00:43;98716.09;;;24.74;100.00
72423;BME280;71399;54.146;38.734;2023-07-22T09:03:10;98712.00;;;24.81;100.00
72423;BME280;71399;54.146;38.734;2023-07-22T09:05:37;98738.25;;;24.96;100.00
72423;BME280;71399;54.146;38.734;2023-07-22T09:08:06;98735.06;;;25.06;100.00
72423;BME280;71399;54.146;38.734;2023-07-22T09:10:33;98764.81;;;25.10;100.00
72423;BME280;71399;54.146;38.734;2023-07-22T09:13:00;98776.28;;;25.07;100.00
72423;BME280;71399;54.146;38.734;2023-07-22T09:15:27;98766.09;;;25.00;100.00
72423;BME280;71399;54.146;38.734;2023-07-22T09:17:54;98776.59;;;24.89;100.00
72423;BME280;71399;54.146;38.734;2023-07-22T09:20:20;98765.91;;;24.81;100.00
72423;BME280;71399;54.146;38.734;2023-07-22T09:22:50;98759.69;;;24.92;100.00
72423;BME280;71399;54.146;38.734;2023-07-22T09:25:27;98767.41;;;25.06;100.00
72423;BME280;71399;54.146;38.734;2023-07-22T09:27:55;98775.69;;;25.13;100.00
72423;BME280;71399;54.146;38.734;2023-07-22T09:32:58;98785.06;;;25.04;100.00
72423;BME280;71399;54.146;38.734;2023-07-22T09:35:45;98777.78;;;24.92;100.00
72423;BME280;71399;54.146;38.734;2023-07-22T09:38:12;98774.47;;;24.83;100.00
72423;BME280;71399;54.146;38.734;2023-07-22T09:40:42;98772.22;;;24.85;100.00
72423;BME280;71399;54.146;38.734;2023-07-22T09:43:11;98772.41;;;24.92;100.00
72423;BME280;71399;54.146;38.734;2023-07-22T09:45:40;98779.22;;;25.02;100.00
72423;BME280;71399;54.146;38.734;2023-07-22T09:48:08;98783.53;;;24.90;100.00
72423;BME280;71399;54.146;38.734;2023-07-22T09:50:36;98763.53;;;24.91;100.00
72423;BME280;71399;54.146;38.734;2023-07-22T09:53:02;98766.72;;;25.09;100.00
72423;BME280;71399;54.146;38.734;2023-07-22T09:55:31;98762.72;;;25.19;100.00
72423;BME280;71399;54.146;38.734;2023-07-22T09:58:02;98772.66;;;25.15;100.00
72423;BME280;71399;54.146;38.734;2023-07-22T10:00:30;98782.09;;;25.09;100.00
72423;BME280;71399;54.146;38.734;2023-07-22T10:02:58;98777.88;;;24.95;100.00
72423;BME280;71399;54.146;38.734;2023-07-22T10:05:26;98784.28;;;25.03;100.00
72423;BME280;71399;54.146;38.734;2023-07-22T10:07:57;98786.13;;;25.15;100.00
72423;BME280;71399;54.146;38.734;2023-07-22T10:10:43;98784.19;;;25.00;100.00
72423;BME280;71399;54.146;38.734;2023-07-22T10:13:10;98768.34;;;24.98;100.00
72423;BME280;71399;54.146;38.734;2023-07-22T10:15:36;98765.00;;;25.17;100.00
72423;BME280;71399;54.146;38.734;2023-07-22T10:18:04;98772.28;;;25.29;100.00
72423;BME280;71399;54.146;38.734;2023-07-22T10:20:34;98788.69;;;25.24;100.00
72423;BME280;71399;54.146;38.734;2023-07-22T10:23:02;98798.34;;;25.25;100.00
72423;BME280;71399;54.146;38.734;2023-07-22T10:25:30;98789.94;;;25.26;100.00
72423;BME280;71399;54.146;38.734;2023-07-22T10:27:56;98781.78;;;25.39;100.00
72423;BME280;71399;54.146;38.734;2023-07-22T10:30:22;98805.81;;;25.44;100.00
72423;BME280;71399;54.146;38.734;2023-07-22T10:32:51;98794.97;;;25.56;100.00
72423;BME280;71399;54.146;38.734;2023-07-22T10:38:09;98817.94;;;25.50;100.00
72423;BME280;71399;54.146;38.734;2023-07-22T10:40:52;98807.81;;;25.19;100.00
72423;BME280;71399;54.146;38.734;2023-07-22T10:43:39;98813.97;;;25.19;100.00
72423;BME280;71399;54.146;38.734;2023-07-22T10:46:12;98797.88;;;25.35;100.00
72423;BME280;71399;54.146;38.734;2023-07-22T10:48:42;98802.34;;;25.59;100.00
72423;BME280;71399;54.146;38.734;2023-07-22T10:51:13;98813.78;;;25.68;100.00
72423;BME280;71399;54.146;38.734;2023-07-22T10:53:43;98812.41;;;25.75;100.00
72423;BME280;71399;54.146;38.734;2023-07-22T10:56:13;98830.22;;;25.63;100.00
72423;BME280;71399;54.146;38.734;2023-07-22T11:11:54;98816.81;;;25.67;100.00
72423;BME280;71399;54.146;38.734;2023-07-22T11:14:27;98816.66;;;25.60;100.00
72423;BME280;71399;54.146;38.734;2023-07-22T11:16:55;98820.91;;;25.61;100.00
72423;BME280;71399;54.146;38.734;2023-07-22T11:19:23;98811.00;;;25.65;100.00
72423;BME280;71399;54.146;38.734;2023-07-22T11:21:51;98815.50;;;25.61;100.00
72423;BME280;71399;54.146;38.734;2023-07-22T11:24:18;98811.28;;;25.47;100.00
72423;BME280;71399;54.146;38.734;2023-07-22T11:26:46;98811.19;;;25.44;100.00
72423;BME280;71399;54.146;38.734;2023-07-22T11:29:12;98796.53;;;25.29;100.00
72423;BME280;71399;54.146;38.734;2023-07-22T11:31:42;98778.81;;;25.28;100.00
72423;BME280;71399;54.146;38.734;2023-07-22T11:34:09;98786.91;;;25.44;100.00
72423;BME280;71399;54.146;38.734;2023-07-22T11:36:36;98782.69;;;25.43;100.00
72423;BME280;71399;54.146;38.734;2023-07-22T11:41:33;98769.63;;;25.45;100.00
72423;BME280;71399;54.146;38.734;2023-07-22T11:44:00;98782.50;;;25.51;100.00
72423;BME280;71399;54.146;38.734;2023-07-22T11:46:28;98770.50;;;25.65;100.00
72423;BME280;71399;54.146;38.734;2023-07-22T11:48:55;98773.47;;;25.76;100.00
72423;BME280;71399;54.146;38.734;2023-07-22T11:51:23;98780.41;;;25.61;100.00
72423;BME280;71399;54.146;38.734;2023-07-22T11:53:51;98785.25;;;25.39;100.00
72423;BME280;71399;54.146;38.734;2023-07-22T11:56:26;98763.28;;;25.25;100.00
72423;BME280;71399;54.146;38.734;2023-07-22T11:58:54;98774.03;;;25.37;100.00
72423;BME280;71399;54.146;38.734;2023-07-22T12:01:21;98779.00;;;25.35;100.00
72423;BME280;71399;54.146;38.734;2023-07-22T12:03:48;98777.38;;;25.18;100.00
72423;BME280;71399;54.146;38.734;2023-07-22T12:06:15;98763.56;;;24.79;100.00
72423;BME280;71399;54.146;38.734;2023-07-22T12:08:46;98768.53;;;24.52;100.00
72423;BME280;71399;54.146;38.734;2023-07-22T12:11:20;98786.50;;;24.60;100.00
72423;BME280;71399;54.146;38.734;2023-07-22T12:13:48;98776.06;;;24.59;100.00
72423;BME280;71399;54.146;38.734;2023-07-22T12:16:23;98772.50;;;24.30;100.00
72423;BME280;71399;54.146;38.734;2023-07-22T12:18:54;98770.38;;;23.99;100.00
72423;BME280;71399;54.146;38.734;2023-07-22T12:21:22;98768.22;;;23.92;100.00
72423;BME280;71399;54.146;38.734;2023-07-22T12:23:48;98767.47;;;24.04;100.00
72423;BME280;71399;54.146;38.734;2023-07-22T12:26:14;98760.63;;;24.07;100.00
72423;BME280;71399;54.146;38.734;2023-07-22T12:28:40;98771.50;;;24.22;100.00
72423;BME280;71399;54.146;38.734;2023-07-22T12:31:07;98751.94;;;24.50;100.00
72423;BME280;71399;54.146;38.734;2023-07-22T12:33:33;98756.38;;;24.83;100.00
72423;BME280;71399;54.146;38.734;2023-07-22T12:35:59;98775.84;;;25.05;100.00
72423;BME280;71399;54.146;38.734;2023-07-22T12:38:25;98768.44;;;25.02;100.00
72423;BME280;71399;54.146;38.734;2023-07-22T12:40:51;98771.78;;;24.83;100.00
72423;BME280;71399;54.146;38.734;2023-07-22T12:43:18;98766.63;;;24.65;100.00
72423;BME280;71399;54.146;38.734;2023-07-22T12:45:44;98774.28;;;24.63;100.00
72423;BME280;71399;54.146;38.734;2023-07-22T12:48:10;98763.16;;;24.65;100.00
72423;BME280;71399;54.146;38.734;2023-07-22T12:50:36;98759.13;;;24.71;100.00
72423;BME280;71399;54.146;38.734;2023-07-22T12:53:02;98765.91;;;24.81;100.00
72423;BME280;71399;54.146;38.734;2023-07-22T12:55:29;98761.56;;;24.76;100.00
72423;BME280;71399;54.146;38.734;2023-07-22T12:57:55;98758.72;;;24.85;100.00
72423;BME280;71399;54.146;38.734;2023-07-22T13:00:22;98763.28;;;24.96;100.00
72423;BME280;71399;54.146;38.734;2023-07-22T13:02:48;98758.72;;;24.85;100.00